DEL MAR NEARSHORE, CA - 153

GPS Positions

GPS Time
Latitude
Degrees
Longitude
Degrees
Gap
 
Distance
NM
Speed
Knots
Direction
Degrees
2024 Feb 27, 23:21 32.95666° -117.27957° 30 min 0.01 0.00
2024 Feb 27, 22:51 32.95665° -117.27957° 30 min 0.01 0.00
287°
2024 Feb 27, 22:21 32.95663° -117.27953° 30 min 0.01 0.00
2024 Feb 27, 21:51 32.95662° -117.27953° 30 min 0.00 0.00
315°
2024 Feb 27, 21:21 32.95660° -117.27950° 30 min 0.00 0.00
320°
2024 Feb 27, 20:51 32.95658° -117.27948° 30 min 0.00 0.00
180°
2024 Feb 27, 20:21 32.95659° -117.27948° 30 min 0.00 0.01
25°
2024 Feb 27, 19:51 32.95655° -117.27950° 30 min 0.00 0.00
148°
2024 Feb 27, 19:21 32.95658° -117.27953° 30 min 0.00 0.00
90°
2024 Feb 27, 18:51 32.95658° -117.27955° 30 min 0.00 0.00
180°
2024 Feb 27, 18:21 32.95660° -117.27955° 30 min 0.01 0.00
180°
2024 Feb 27, 17:51 32.95661° -117.27955° 30 min 0.01 0.00
140°
2024 Feb 27, 17:21 32.95663° -117.27957° 30 min 0.01 0.01
17°
2024 Feb 27, 16:51 32.95659° -117.27959° 30 min 0.01 0.01
180°
2024 Feb 27, 16:21 32.95663° -117.27959° 30 min 0.01 0.00
2024 Feb 27, 15:51 32.95662° -117.27959° 30 min 0.01 0.00
2024 Feb 27, 15:21 32.95662° -117.27959° 30 min 0.01 0.00
90°
2024 Feb 27, 14:51 32.95662° -117.27963° 30 min 0.01 0.00
270°
2024 Feb 27, 14:21 32.95662° -117.27959° 30 min 0.01 0.00
250°
2024 Feb 27, 13:51 32.95663° -117.27955° 30 min 0.01 0.00
70°
2024 Feb 27, 13:21 32.95662° -117.27959° 30 min 0.01 0.00
180°
2024 Feb 27, 12:51 32.95665° -117.27959° 30 min 0.01 0.00
203°
2024 Feb 27, 12:21 32.95668° -117.27957° 30 min 0.01 0.00
48°
2024 Feb 27, 11:51 32.95667° -117.27959° 30 min 0.01 0.00
90°
2024 Feb 27, 11:21 32.95667° -117.27961° 30 min 0.01 0.00
32°
2024 Feb 27, 10:51 32.95663° -117.27963° 30 min 0.01 0.00
2024 Feb 27, 10:21 32.95662° -117.27963° 30 min 0.01 0.01
42°
2024 Feb 27, 09:51 32.95658° -117.27968° 30 min 0.01 0.01
333°
2024 Feb 27, 09:21 32.95650° -117.27963° 30 min 0.01 0.01
301°
2024 Feb 27, 08:51 32.95646° -117.27955° 30 min 0.01 0.00
287°
2024 Feb 27, 08:21 32.95645° -117.27950° 30 min 0.01 0.01
220°
2024 Feb 27, 07:51 32.95650° -117.27946° 30 min 0.01 0.00
148°
2024 Feb 27, 07:21 32.95653° -117.27948° 30 min 0.00 0.01
149°
2024 Feb 27, 06:51 32.95659° -117.27953° 30 min 0.00 0.01
244°
2024 Feb 27, 06:21 32.95661° -117.27948° 30 min 0.00 0.01
180°
2024 Feb 27, 05:51 32.95669° -117.27948° 30 min 0.01 0.01
180°
2024 Feb 27, 05:21 32.95678° -117.27948° 30 min 0.01 0.01
146°
2024 Feb 27, 04:51 32.95684° -117.27953° 30 min 0.02 0.01
95°
2024 Feb 27, 04:21 32.95685° -117.27963° 30 min 0.02 0.00
68°
2024 Feb 27, 03:51 32.95684° -117.27966° 30 min 0.02 0.00
259°
2024 Feb 27, 03:21 32.95685° -117.27961° 30 min 0.02 0.00
301°
2024 Feb 27, 02:51 32.95683° -117.27957° 30 min 0.02 0.00
2024 Feb 27, 02:21 32.95682° -117.27957° 30 min 0.02 0.00
301°
2024 Feb 27, 01:51 32.95681° -117.27955° 30 min 0.01 0.00
180°
2024 Feb 27, 01:21 32.95682° -117.27955° 30 min 0.02 0.00
180°
2024 Feb 27, 00:51 32.95684° -117.27955° 30 min 0.02 0.01
66°
2024 Feb 27, 00:21 32.95682° -117.27961° 30 min 0.02 0.01
20°
2024 Feb 26, 23:51 32.95676° -117.27963° 30 min 0.01 0.02
2024 Feb 26, 23:21 32.95660° -117.27963° 30 min 0.01 0.01
2024 Feb 26, 22:51 32.95649° -117.27966° 30 min 0.01 0.02
2024 Feb 26, 22:21 32.95629° -117.27968° 30 min 0.02 0.01
310°
2024 Feb 26, 21:51 32.95621° -117.27957° 30 min 0.02 0.00
315°
2024 Feb 26, 21:21 32.95620° -117.27955° 30 min 0.02 0.01
270°
2024 Feb 26, 20:51 32.95620° -117.27948° 30 min 0.02 0.00
73°
2024 Feb 26, 20:21 32.95618° -117.27953° 30 min 0.02 0.00
90°
2024 Feb 26, 19:51 32.95618° -117.27957° 30 min 0.02 0.00
2024 Feb 26, 19:21 32.95618° -117.27957° 30 min 0.02 0.00
2024 Feb 26, 18:51 32.95616° -117.27957° 30 min 0.03 0.00
209°
2024 Feb 26, 18:21 32.95620° -117.27955° 30 min 0.02 0.01
110°
2024 Feb 26, 17:51 32.95621° -117.27961° 30 min 0.02 0.01
145°
2024 Feb 26, 17:21 32.95631° -117.27969° 30 min 0.02 0.01
180°
2024 Feb 26, 16:51 32.95639° -117.27969° 30 min 0.02 0.01
144°
2024 Feb 26, 16:21 32.95644° -117.27974° 30 min 0.02 0.01
140°
2024 Feb 26, 15:51 32.95649° -117.27979° 30 min 0.02 0.01
232°
2024 Feb 26, 15:21 32.95652° -117.27974° 30 min 0.02 0.02
158°
2024 Feb 26, 14:51 32.95665° -117.27980° 30 min 0.02 0.02
194°
2024 Feb 26, 14:21 32.95678° -117.27976° 30 min 0.02 0.02
237°
2024 Feb 26, 13:51 32.95687° -117.27959° 30 min 0.02 0.01
257°
2024 Feb 26, 13:21 32.95688° -117.27953° 30 min 0.02 0.01
81°
2024 Feb 26, 12:51 32.95687° -117.27961° 30 min 0.02 0.01
247°
2024 Feb 26, 12:21 32.95690° -117.27953° 30 min 0.02 0.02
100°
2024 Feb 26, 11:51 32.95692° -117.27968° 30 min 0.02 0.01
259°
2024 Feb 26, 11:21 32.95694° -117.27961° 30 min 0.02 0.01
53°
2024 Feb 26, 10:51 32.95688° -117.27969° 30 min 0.02 0.01
69°
2024 Feb 26, 10:21 32.95685° -117.27980° 30 min 0.02 0.02
26°
2024 Feb 26, 09:51 32.95673° -117.27987° 30 min 0.02 0.02
2024 Feb 26, 09:21 32.95657° -117.27989° 30 min 0.02 0.02
329°
2024 Feb 26, 08:51 32.95642° -117.27979° 30 min 0.02 0.02
332°
2024 Feb 26, 08:21 32.95625° -117.27968° 30 min 0.02 0.01
324°
2024 Feb 26, 07:51 32.95620° -117.27963° 30 min 0.02 0.00
270°
2024 Feb 26, 07:21 32.95620° -117.27959° 30 min 0.02 0.01
283°
2024 Feb 26, 06:51 32.95618° -117.27953° 30 min 0.02 0.00
270°
2024 Feb 26, 06:21 32.95618° -117.27950° 30 min 0.02 0.01
128°
2024 Feb 26, 05:51 32.95621° -117.27955° 30 min 0.02 0.00
180°
2024 Feb 26, 05:21 32.95623° -117.27955° 30 min 0.02 0.00
121°
2024 Feb 26, 04:51 32.95624° -117.27957° 30 min 0.02 0.01
46°
2024 Feb 26, 04:21 32.95621° -117.27961° 30 min 0.02 0.02
180°
2024 Feb 26, 03:51 32.95634° -117.27961° 30 min 0.02 0.01
147°
2024 Feb 26, 03:21 32.95643° -117.27968° 30 min 0.01 0.00
29°
2024 Feb 26, 02:51 32.95641° -117.27969° 30 min 0.02 0.01
20°
2024 Feb 26, 02:21 32.95636° -117.27972° 30 min 0.02 0.01
330°
2024 Feb 26, 01:51 32.95627° -117.27966° 30 min 0.02 0.01
301°
2024 Feb 26, 01:21 32.95621° -117.27955° 30 min 0.02 0.01
270°
2024 Feb 26, 00:51 32.95621° -117.27948° 30 min 0.02 0.01
200°
2024 Feb 26, 00:21 32.95630° -117.27944° 30 min 0.02 0.01
180°
2024 Feb 25, 23:51 32.95634° -117.27944° 30 min 0.01 0.00
2024 Feb 25, 23:21 32.95631° -117.27944° 30 min 0.02 0.01
13°
2024 Feb 25, 22:51 32.95626° -117.27946° 30 min 0.02 0.01
52°
2024 Feb 25, 22:21 32.95621° -117.27953° 30 min 0.02 0.00
180°
2024 Feb 25, 21:51 32.95623° -117.27953° 30 min 0.02 0.00
270°
2024 Feb 25, 21:21 32.95623° -117.27948° 30 min 0.02 0.01
101°
2024 Feb 25, 20:51 32.95624° -117.27955° 30 min 0.02 0.00
239°
2024 Feb 25, 20:21 32.95625° -117.27953° 30 min 0.02 0.00
40°
2024 Feb 25, 19:51 32.95623° -117.27955° 30 min 0.02 0.00
2024 Feb 25, 19:21 32.95623° -117.27955° 30 min 0.02 0.00
2024 Feb 25, 18:51 32.95620° -117.27955° 30 min 0.02 0.00
110°
2024 Feb 25, 18:21 32.95621° -117.27959° 30 min 0.02 0.00
340°
2024 Feb 25, 17:51 32.95617° -117.27957° 30 min 0.03 0.00
209°
2024 Feb 25, 17:21 32.95621° -117.27955° 30 min 0.02 0.00
212°
2024 Feb 25, 16:51 32.95624° -117.27953° 30 min 0.02 0.00
2024 Feb 25, 16:21 32.95624° -117.27953° 30 min 0.02 0.01
104°
2024 Feb 25, 15:51 32.95626° -117.27963° 30 min 0.02 0.01
180°
2024 Feb 25, 15:21 32.95631° -117.27963° 30 min 0.02 0.01
160°
2024 Feb 25, 14:51 32.95637° -117.27966° 30 min 0.02 0.00
180°
2024 Feb 25, 14:21 32.95638° -117.27966° 30 min 0.02 0.01
252°
2024 Feb 25, 13:51 32.95640° -117.27959° 30 min 0.01 0.00
90°
2024 Feb 25, 13:21 32.95640° -117.27963° 30 min 0.01 0.01
228°
2024 Feb 25, 12:51 32.95643° -117.27959° 30 min 0.01 0.00
180°
2024 Feb 25, 12:21 32.95644° -117.27959° 30 min 0.01 0.00
180°
2024 Feb 25, 11:51 32.95645° -117.27959° 30 min 0.01 0.00
2024 Feb 25, 11:21 32.95645° -117.27959° 30 min 0.01 0.00
32°
2024 Feb 25, 10:51 32.95642° -117.27961° 30 min 0.01 0.00
90°
2024 Feb 25, 10:21 32.95642° -117.27963° 30 min 0.01 0.00
2024 Feb 25, 09:51 32.95639° -117.27963° 30 min 0.01 0.00
2024 Feb 25, 09:21 32.95639° -117.27963° 30 min 0.01 0.01
2024 Feb 25, 08:51 32.95627° -117.27963° 30 min 0.02 0.01
301°
2024 Feb 25, 08:21 32.95623° -117.27955° 30 min 0.02 0.00
270°
2024 Feb 25, 07:51 32.95623° -117.27950° 30 min 0.02 0.00
315°
2024 Feb 25, 07:21 32.95621° -117.27948° 30 min 0.02 0.00
301°
2024 Feb 25, 06:51 32.95620° -117.27946° 30 min 0.02 0.00
2024 Feb 25, 06:21 32.95618° -117.27946° 30 min 0.02 0.00
2024 Feb 25, 05:51 32.95618° -117.27946° 30 min 0.02 0.00
270°
2024 Feb 25, 05:21 32.95618° -117.27944° 30 min 0.02 0.00
70°
2024 Feb 25, 04:51 32.95617° -117.27948° 30 min 0.02 0.00
45°
2024 Feb 25, 04:21 32.95615° -117.27950° 30 min 0.03 0.00
112°
2024 Feb 25, 03:51 32.95616° -117.27953° 30 min 0.03 0.00
90°
2024 Feb 25, 03:21 32.95616° -117.27955° 30 min 0.03 0.00
2024 Feb 25, 02:51 32.95616° -117.27955° 30 min 0.03 0.00
180°
2024 Feb 25, 02:21 32.95618° -117.27955° 30 min 0.02 0.00
180°
2024 Feb 25, 01:51 32.95621° -117.27955° 30 min 0.02 0.01
2024 Feb 25, 01:21 32.95617° -117.27955° 30 min 0.03 0.00
270°
2024 Feb 25, 00:51 32.95617° -117.27953° 30 min 0.02 0.00